Time;durP1;ratioP1;P1;durP2;ratioP2;P2;SDS_P1;SDS_P2;PMS_P1;PMS_P2;Temp;Humidity;BMP_temperature;BMP_pressure;BME280_temperature;BME280_humidity;BME280_pressure;Samples;Min_cycle;Max_cycle;Signal;HPM_P1;HPM_P2
2023/06/26 00:00:24;;;;;;;;;;;;;;;25.19;85.96;101139.28;4989734;28;19933;-77
2023/06/26 00:02:50;;;;;;;;;;;;;;;25.13;86.99;101136.69;4982687;28;20346;-76
2023/06/26 00:05:17;;;;;;;;;;;;;;;25.06;88.76;101132.28;4988558;28;19925;-77
2023/06/26 00:07:43;;;;;;;;;;;;;;;24.97;88.90;101132.88;4978306;28;19939;-75
2023/06/26 00:10:10;;;;;;;;;;;;;;;24.95;87.84;101125.06;4969278;28;19957;-77
2023/06/26 00:12:36;;;;;;;;;;;;;;;24.94;89.75;101125.31;4967600;28;19922;-77
2023/06/26 00:15:03;;;;;;;;;;;;;;;24.89;90.47;101122.50;4994837;28;20421;-77
2023/06/26 00:17:29;;;;;;;;;;;;;;;24.83;91.36;101124.25;4984555;28;19922;-77
2023/06/26 00:19:56;;;;;;;;;;;;;;;24.80;92.69;101122.84;4963881;28;20007;-73
2023/06/26 00:22:22;;;;;;;;;;;;;;;24.72;92.36;101127.75;4982642;28;20375;-76
2023/06/26 00:24:49;;;;;;;;;;;;;;;24.66;91.79;101116.91;4979582;28;20027;-77
2023/06/26 00:27:15;;;;;;;;;;;;;;;24.59;92.67;101112.72;4991325;28;19957;-76
2023/06/26 00:29:42;;;;;;;;;;;;;;;24.54;91.70;101116.09;4985957;28;19929;-77
2023/06/26 00:32:08;;;;;;;;;;;;;;;24.46;93.40;101109.19;4987360;28;19989;-77
2023/06/26 00:34:35;;;;;;;;;;;;;;;24.42;93.99;101104.50;4970053;28;19973;-75
2023/06/26 00:37:01;;;;;;;;;;;;;;;24.40;92.95;101101.22;4978042;28;19922;-76
2023/06/26 00:39:27;;;;;;;;;;;;;;;24.37;95.00;101099.03;4988329;28;20053;-74
2023/06/26 00:41:54;;;;;;;;;;;;;;;24.35;92.52;101093.88;4983954;28;19968;-77
2023/06/26 00:44:21;;;;;;;;;;;;;;;24.34;92.67;101094.13;4973287;28;19976;-74
2023/06/26 00:46:47;;;;;;;;;;;;;;;24.31;92.96;101086.56;4985627;28;20264;-76
2023/06/26 00:49:14;;;;;;;;;;;;;;;24.26;94.38;101088.03;4983331;28;19944;-77
2023/06/26 00:51:41;;;;;;;;;;;;;;;24.20;95.85;101088.16;4971010;28;19926;-76
2023/06/26 00:54:07;;;;;;;;;;;;;;;24.17;93.71;101099.31;4979593;28;19972;-77
2023/06/26 00:56:34;;;;;;;;;;;;;;;24.07;95.13;101097.19;4991196;28;19925;-77
2023/06/26 00:59:00;;;;;;;;;;;;;;;24.00;95.77;101104.53;4968985;28;19922;-76
2023/06/26 01:01:27;;;;;;;;;;;;;;;23.96;95.09;101101.50;4989824;28;19925;-73
2023/06/26 01:03:54;;;;;;;;;;;;;;;23.91;95.24;101103.22;4964382;28;19938;-76
2023/06/26 01:06:23;;;;;;;;;;;;;;;23.90;94.37;101097.06;4972611;28;19976;-75
2023/06/26 01:08:51;;;;;;;;;;;;;;;23.86;96.33;101098.56;4982185;28;19930;-77
2023/06/26 01:11:18;;;;;;;;;;;;;;;23.82;96.83;101106.22;4978883;28;19937;-77
2023/06/26 01:13:45;;;;;;;;;;;;;;;23.78;97.81;101099.69;4969245;28;19956;-77
2023/06/26 01:16:11;;;;;;;;;;;;;;;23.75;97.93;101092.06;4980156;28;19922;-77
2023/06/26 01:18:41;;;;;;;;;;;;;;;23.79;96.72;101095.16;4985991;28;19929;-77
2023/06/26 01:21:09;;;;;;;;;;;;;;;23.82;96.55;101095.53;4965439;28;19933;-75
2023/06/26 01:23:38;;;;;;;;;;;;;;;23.85;97.21;101094.25;4969712;28;20555;-75
2023/06/26 01:26:05;;;;;;;;;;;;;;;23.86;97.72;101095.88;4987376;28;20014;-77
2023/06/26 01:28:31;;;;;;;;;;;;;;;23.85;97.45;101088.88;4975414;28;20271;-76
2023/06/26 01:30:58;;;;;;;;;;;;;;;23.82;98.74;101089.34;4967670;28;19925;-77
2023/06/26 01:33:25;;;;;;;;;;;;;;;23.80;98.76;101086.09;4977216;28;19926;-74
2023/06/26 01:35:51;;;;;;;;;;;;;;;23.75;97.29;101086.72;4987502;28;19922;-76
2023/06/26 01:38:18;;;;;;;;;;;;;;;23.71;94.12;101088.22;4980554;28;19925;-76
2023/06/26 01:40:45;;;;;;;;;;;;;;;23.71;95.77;101090.91;4970010;28;20001;-75
2023/06/26 01:43:30;;;;;;;;;;;;;;;23.68;91.97;101107.44;4990334;28;20566;-77
2023/06/26 01:46:11;;;;;;;;;;;;;;;23.62;91.02;101102.97;4981874;28;19926;-74
2023/06/26 01:48:51;;;;;;;;;;;;;;;23.63;91.00;101123.34;4989830;28;19933;-76
2023/06/26 01:51:18;;;;;;;;;;;;;;;23.63;90.79;101112.66;4987452;28;20364;-77
2023/06/26 01:53:46;;;;;;;;;;;;;;;23.60;88.00;101126.47;4993154;28;19933;-75
2023/06/26 01:56:14;;;;;;;;;;;;;;;23.56;89.28;101115.41;4982520;28;19922;-76
2023/06/26 01:58:42;;;;;;;;;;;;;;;23.53;88.29;101115.03;4985633;28;20283;-77
2023/06/26 02:01:09;;;;;;;;;;;;;;;23.50;88.94;101121.66;4967415;28;20670;-77
2023/06/26 02:03:35;;;;;;;;;;;;;;;23.46;88.47;101125.81;4993502;28;20421;-76
2023/06/26 02:06:02;;;;;;;;;;;;;;;23.41;88.25;101123.81;4974680;28;19997;-77
2023/06/26 02:08:28;;;;;;;;;;;;;;;23.48;89.10;101127.25;4969979;28;19948;-76
2023/06/26 02:10:55;;;;;;;;;;;;;;;23.42;88.74;101135.34;4989076;28;20004;-75
2023/06/26 02:13:21;;;;;;;;;;;;;;;23.42;89.10;101138.03;4962082;28;19922;-77
2023/06/26 02:15:48;;;;;;;;;;;;;;;23.36;90.13;101129.03;4978013;28;19961;-77
2023/06/26 02:18:15;;;;;;;;;;;;;;;23.33;90.79;101136.72;4982936;28;19936;-76
2023/06/26 02:20:43;;;;;;;;;;;;;;;23.29;92.89;101144.34;4976702;28;20446;-73
2023/06/26 02:23:10;;;;;;;;;;;;;;;23.27;92.98;101149.94;4986142;28;19926;-74
2023/06/26 02:25:36;;;;;;;;;;;;;;;23.23;92.02;101142.59;5000635;28;19922;-75
2023/06/26 02:28:03;;;;;;;;;;;;;;;23.12;92.80;101138.75;5001287;28;20366;-77
2023/06/26 02:30:29;;;;;;;;;;;;;;;23.04;92.09;101137.19;4982318;28;19922;-77
2023/06/26 02:32:56;;;;;;;;;;;;;;;23.01;92.37;101134.94;4986979;28;19926;-76
2023/06/26 02:35:22;;;;;;;;;;;;;;;23.00;93.24;101144.00;4966832;28;19948;-77
2023/06/26 02:37:48;;;;;;;;;;;;;;;22.86;92.24;101143.31;4982725;28;19930;-77
2023/06/26 02:40:15;;;;;;;;;;;;;;;22.82;91.96;101147.47;4985321;28;19929;-76
2023/06/26 02:42:41;;;;;;;;;;;;;;;22.76;92.00;101145.69;4968061;28;19928;-77
2023/06/26 02:45:08;;;;;;;;;;;;;;;22.75;91.97;101151.25;4980024;28;19925;-71
2023/06/26 02:47:36;;;;;;;;;;;;;;;22.62;91.10;101147.66;4968084;28;20450;-71
2023/06/26 02:50:03;;;;;;;;;;;;;;;22.62;91.96;101157.50;4968951;28;19921;-72
2023/06/26 02:52:30;;;;;;;;;;;;;;;22.59;92.01;101158.75;4963902;28;20271;-71
2023/06/26 02:54:56;;;;;;;;;;;;;;;22.54;92.95;101161.25;4989912;28;19960;-71
2023/06/26 02:57:23;;;;;;;;;;;;;;;22.57;93.01;101160.03;4975771;28;20019;-71
2023/06/26 02:59:49;;;;;;;;;;;;;;;22.47;93.51;101158.66;4986394;28;19922;-70
2023/06/26 03:02:16;;;;;;;;;;;;;;;22.38;94.56;101161.81;4970233;28;20024;-71
2023/06/26 03:04:43;;;;;;;;;;;;;;;22.35;95.64;101165.75;4964030;28;19929;-70
2023/06/26 03:07:09;;;;;;;;;;;;;;;22.18;97.07;101168.06;4983786;28;19921;-70
2023/06/26 03:09:36;;;;;;;;;;;;;;;22.15;97.02;101171.19;4972694;28;19971;-70
2023/06/26 03:12:03;;;;;;;;;;;;;;;22.05;99.22;101165.47;4986324;28;19929;-71
2023/06/26 03:14:31;;;;;;;;;;;;;;;22.03;100.00;101171.03;4968537;28;19969;-72
2023/06/26 03:16:58;;;;;;;;;;;;;;;22.05;98.57;101171.66;4983540;28;20534;-70
2023/06/26 03:19:25;;;;;;;;;;;;;;;21.98;100.00;101175.38;4985266;28;19926;-70
2023/06/26 03:21:52;;;;;;;;;;;;;;;21.94;100.00;101176.84;4963853;28;20395;-71
2023/06/26 03:24:18;;;;;;;;;;;;;;;21.92;100.00;101175.19;4984658;28;19929;-71
2023/06/26 03:26:45;;;;;;;;;;;;;;;21.96;100.00;101172.91;4982772;28;19965;-73
2023/06/26 03:29:11;;;;;;;;;;;;;;;21.90;100.00;101184.47;4975319;28;19964;-72
2023/06/26 03:31:37;;;;;;;;;;;;;;;21.83;100.00;101184.47;4987730;28;19925;-72
2023/06/26 03:34:04;;;;;;;;;;;;;;;21.81;100.00;101183.88;4974543;28;20563;-73
2023/06/26 03:36:30;;;;;;;;;;;;;;;21.77;100.00;101187.19;4983639;28;19949;-72
2023/06/26 03:38:57;;;;;;;;;;;;;;;21.67;100.00;101190.28;4982612;28;19925;-74
2023/06/26 03:41:23;;;;;;;;;;;;;;;21.66;100.00;101177.97;4973345;28;19975;-72
2023/06/26 03:43:50;;;;;;;;;;;;;;;21.64;100.00;101183.53;4989373;28;20008;-72
2023/06/26 03:46:16;;;;;;;;;;;;;;;21.60;100.00;101178.81;4980940;28;20378;-74
2023/06/26 03:48:43;;;;;;;;;;;;;;;21.61;100.00;101177.81;4984207;28;19925;-74
2023/06/26 03:51:09;;;;;;;;;;;;;;;21.62;100.00;101180.25;4984327;28;20475;-72
2023/06/26 03:53:36;;;;;;;;;;;;;;;21.63;100.00;101178.41;4986257;28;19926;-72
2023/06/26 03:56:02;;;;;;;;;;;;;;;21.52;100.00;101185.19;4965035;28;19930;-72
2023/06/26 03:58:29;;;;;;;;;;;;;;;21.57;100.00;101192.59;4971609;28;20392;-73
2023/06/26 04:00:55;;;;;;;;;;;;;;;21.46;100.00;101186.88;4965407;28;20346;-73
2023/06/26 04:03:22;;;;;;;;;;;;;;;21.45;100.00;101176.41;4980695;28;20012;-72
2023/06/26 04:05:49;;;;;;;;;;;;;;;21.39;100.00;101178.03;4987801;28;20310;-72
2023/06/26 04:08:15;;;;;;;;;;;;;;;21.37;100.00;101189.97;4982582;28;20427;-73
2023/06/26 04:10:41;;;;;;;;;;;;;;;21.36;100.00;101189.13;4982122;28;19930;-72
2023/06/26 04:13:08;;;;;;;;;;;;;;;21.37;100.00;101200.63;4979399;28;19925;-72
2023/06/26 04:15:34;;;;;;;;;;;;;;;21.33;100.00;101205.56;4980645;28;20297;-72
2023/06/26 04:18:01;;;;;;;;;;;;;;;21.31;100.00;101203.09;4983860;28;19922;-72
2023/06/26 04:20:28;;;;;;;;;;;;;;;21.28;100.00;101205.34;4977311;28;19925;-73
2023/06/26 04:22:54;;;;;;;;;;;;;;;21.36;100.00;101218.47;4971929;28;19965;-72
2023/06/26 04:25:21;;;;;;;;;;;;;;;21.31;100.00;101218.28;4984618;28;19929;-73
2023/06/26 04:27:47;;;;;;;;;;;;;;;21.23;100.00;101224.66;4985954;28;20346;-72
2023/06/26 04:30:14;;;;;;;;;;;;;;;21.20;100.00;101227.72;4972401;28;20636;-72
2023/06/26 04:32:40;;;;;;;;;;;;;;;21.19;100.00;101222.59;4968709;28;19934;-72
2023/06/26 04:35:07;;;;;;;;;;;;;;;21.17;100.00;101238.00;4985528;28;19925;-72
2023/06/26 04:37:33;;;;;;;;;;;;;;;21.07;100.00;101236.56;4983018;28;19960;-72
2023/06/26 04:40:00;;;;;;;;;;;;;;;21.07;100.00;101231.25;4984734;28;19933;-69
2023/06/26 04:42:26;;;;;;;;;;;;;;;21.11;100.00;101231.63;4981830;28;19931;-70
2023/06/26 04:44:52;;;;;;;;;;;;;;;21.09;100.00;101226.53;4989508;28;19964;-70
2023/06/26 04:47:19;;;;;;;;;;;;;;;21.05;100.00;101230.63;4985659;28;19972;-71
2023/06/26 04:49:45;;;;;;;;;;;;;;;21.10;100.00;101236.16;4987733;28;20301;-70
2023/06/26 04:52:16;;;;;;;;;;;;;;;21.20;100.00;101234.91;4984437;28;19929;-71
2023/06/26 04:54:42;;;;;;;;;;;;;;;21.04;100.00;101242.31;4975962;28;19984;-70
2023/06/26 04:57:09;;;;;;;;;;;;;;;21.06;100.00;101244.78;4985294;28;20012;-71
2023/06/26 04:59:35;;;;;;;;;;;;;;;21.06;100.00;101248.25;4979516;28;19926;-71
2023/06/26 05:02:02;;;;;;;;;;;;;;;21.03;100.00;101253.19;4968320;28;19925;-71
2023/06/26 05:04:29;;;;;;;;;;;;;;;20.99;100.00;101250.09;4979617;28;19926;-70
2023/06/26 05:06:55;;;;;;;;;;;;;;;21.05;100.00;101251.97;4976877;28;20005;-72
2023/06/26 05:09:22;;;;;;;;;;;;;;;20.96;100.00;101255.84;4964589;28;20024;-71
2023/06/26 05:11:48;;;;;;;;;;;;;;;21.01;100.00;101245.41;4981256;28;19922;-70
2023/06/26 05:14:15;;;;;;;;;;;;;;;21.01;100.00;101252.56;4971454;28;19921;-70
2023/06/26 05:16:41;;;;;;;;;;;;;;;21.04;100.00;101254.84;4979485;28;19933;-70
2023/06/26 05:19:08;;;;;;;;;;;;;;;21.08;100.00;101264.06;4989102;28;19992;-70
2023/06/26 05:21:34;;;;;;;;;;;;;;;21.11;100.00;101253.81;4969581;28;21233;-70
2023/06/26 05:24:02;;;;;;;;;;;;;;;21.17;100.00;101254.84;4985313;28;19945;-70
2023/06/26 05:26:29;;;;;;;;;;;;;;;21.25;100.00;101261.81;4983831;28;19932;-71
2023/06/26 05:28:55;;;;;;;;;;;;;;;21.22;100.00;101265.69;4987424;28;19929;-71
2023/06/26 05:31:22;;;;;;;;;;;;;;;21.23;100.00;101278.00;4992790;28;19921;-70
2023/06/26 05:33:49;;;;;;;;;;;;;;;21.20;100.00;101281.09;4962253;28;19926;-71
2023/06/26 05:36:16;;;;;;;;;;;;;;;21.33;100.00;101283.75;4969896;28;19957;-70
2023/06/26 05:38:43;;;;;;;;;;;;;;;21.41;100.00;101297.91;4961660;28;20013;-71
2023/06/26 05:41:09;;;;;;;;;;;;;;;21.35;100.00;101296.88;4990723;28;19921;-70
2023/06/26 05:43:36;;;;;;;;;;;;;;;21.42;100.00;101299.53;4987198;28;19926;-71
2023/06/26 05:46:02;;;;;;;;;;;;;;;21.38;100.00;101303.66;4983607;28;19995;-71
2023/06/26 05:48:29;;;;;;;;;;;;;;;21.29;100.00;101303.06;4983465;28;19925;-72
2023/06/26 05:50:55;;;;;;;;;;;;;;;21.29;100.00;101311.06;4978037;28;19926;-71
2023/06/26 05:53:22;;;;;;;;;;;;;;;21.32;100.00;101321.31;4972198;28;19968;-70
2023/06/26 05:55:49;;;;;;;;;;;;;;;21.26;100.00;101312.28;4993121;28;19932;-71
2023/06/26 05:58:16;;;;;;;;;;;;;;;21.21;100.00;101327.25;4991038;28;19988;-70
2023/06/26 06:00:43;;;;;;;;;;;;;;;21.18;100.00;101325.81;4989411;28;19930;-70
2023/06/26 06:03:10;;;;;;;;;;;;;;;21.26;100.00;101330.94;4964948;28;20484;-70
2023/06/26 06:05:37;;;;;;;;;;;;;;;21.37;100.00;101344.72;4982887;28;20338;-70
2023/06/26 06:08:03;;;;;;;;;;;;;;;21.22;100.00;101343.06;4985197;28;20375;-72
2023/06/26 06:10:30;;;;;;;;;;;;;;;21.26;100.00;101332.81;4985892;28;20326;-71
2023/06/26 06:12:56;;;;;;;;;;;;;;;21.29;100.00;101343.88;4979563;28;19988;-70
2023/06/26 06:15:23;;;;;;;;;;;;;;;21.30;100.00;101340.19;4970762;28;19944;-71
2023/06/26 06:17:49;;;;;;;;;;;;;;;21.32;100.00;101351.47;4978531;28;19922;-71
2023/06/26 06:20:16;;;;;;;;;;;;;;;21.40;100.00;101354.97;4969217;28;19932;-70
2023/06/26 06:22:43;;;;;;;;;;;;;;;21.49;100.00;101361.78;4990490;28;19969;-71
2023/06/26 06:25:09;;;;;;;;;;;;;;;21.50;99.43;101361.59;4970725;28;19921;-77
2023/06/26 06:27:36;;;;;;;;;;;;;;;21.49;96.02;101367.94;4975519;28;19932;-75
2023/06/26 06:30:02;;;;;;;;;;;;;;;21.57;97.60;101376.78;4964980;28;19926;-78
2023/06/26 06:32:31;;;;;;;;;;;;;;;21.57;94.99;101371.44;4982442;28;19933;-74
2023/06/26 06:34:57;;;;;;;;;;;;;;;21.68;93.21;101384.16;4975154;28;20020;-77
2023/06/26 06:37:24;;;;;;;;;;;;;;;21.60;87.18;101382.53;4964618;28;20353;-77
2023/06/26 06:39:50;;;;;;;;;;;;;;;21.68;88.18;101386.84;4991541;28;19921;-75
2023/06/26 06:42:17;;;;;;;;;;;;;;;21.76;87.42;101391.97;4967129;28;20552;-78
2023/06/26 06:44:43;;;;;;;;;;;;;;;21.72;85.08;101393.41;4959708;28;20386;-75
2023/06/26 06:47:10;;;;;;;;;;;;;;;21.78;87.19;101386.38;4979241;28;20020;-82
2023/06/26 06:49:36;;;;;;;;;;;;;;;21.86;87.91;101378.19;4972056;28;19925;-75
2023/06/26 06:52:03;;;;;;;;;;;;;;;21.97;87.81;101387.41;4992188;28;19922;-78
2023/06/26 06:54:29;;;;;;;;;;;;;;;22.05;86.62;101397.84;4967897;28;19937;-77
2023/06/26 06:56:55;;;;;;;;;;;;;;;22.01;81.73;101405.50;4975094;28;19926;-76
2023/06/26 06:59:22;;;;;;;;;;;;;;;22.07;84.26;101409.16;4979633;28;19972;-78
2023/06/26 07:01:48;;;;;;;;;;;;;;;22.10;84.16;101414.09;4980640;28;19926;-79
2023/06/26 07:04:15;;;;;;;;;;;;;;;22.18;82.42;101416.53;4985134;28;20012;-78
2023/06/26 07:06:41;;;;;;;;;;;;;;;22.15;82.70;101421.47;4987207;28;20022;-78
2023/06/26 07:09:07;;;;;;;;;;;;;;;22.15;82.30;101424.16;4988878;28;19922;-78
2023/06/26 07:11:34;;;;;;;;;;;;;;;22.12;82.41;101420.06;4967233;28;19925;-77
2023/06/26 07:14:00;;;;;;;;;;;;;;;22.09;82.33;101423.97;4964860;28;19930;-79
2023/06/26 07:16:27;;;;;;;;;;;;;;;22.11;83.57;101431.78;4965203;28;19984;-77
2023/06/26 07:18:54;;;;;;;;;;;;;;;22.16;82.21;101431.97;4990998;28;20003;-79
2023/06/26 07:21:22;;;;;;;;;;;;;;;22.27;81.36;101441.22;4989655;28;19926;-76
2023/06/26 07:23:51;;;;;;;;;;;;;;;22.33;78.94;101436.91;4968639;28;19932;-78
2023/06/26 07:26:18;;;;;;;;;;;;;;;22.50;82.01;101438.06;4985631;28;20314;-78
2023/06/26 07:28:56;;;;;;;;;;;;;;;22.49;78.54;101442.59;4978700;28;19933;-74
2023/06/26 07:31:22;;;;;;;;;;;;;;;22.56;80.04;101455.13;4989605;28;19933;-82
2023/06/26 07:33:49;;;;;;;;;;;;;;;22.52;80.59;101457.38;4983714;28;19926;-76
2023/06/26 07:36:15;;;;;;;;;;;;;;;22.53;80.78;101455.56;4984487;28;19941;-75
2023/06/26 07:38:42;;;;;;;;;;;;;;;22.63;79.73;101453.25;4965466;28;20614;-74
2023/06/26 07:41:08;;;;;;;;;;;;;;;22.67;79.59;101465.16;4983247;28;19967;-79
2023/06/26 07:43:35;;;;;;;;;;;;;;;22.82;82.10;101467.59;4980260;28;19925;-79
2023/06/26 07:46:01;;;;;;;;;;;;;;;22.84;78.60;101471.69;4984566;28;20405;-80
2023/06/26 07:48:28;;;;;;;;;;;;;;;22.88;80.32;101458.72;4972186;28;20425;-80
2023/06/26 07:50:54;;;;;;;;;;;;;;;22.74;78.56;101455.28;4971948;28;19972;-78
2023/06/26 07:53:21;;;;;;;;;;;;;;;22.75;82.13;101459.56;4991712;28;20295;-77
2023/06/26 07:55:48;;;;;;;;;;;;;;;22.86;82.69;101463.47;4987249;28;19933;-78
2023/06/26 07:58:14;;;;;;;;;;;;;;;22.78;81.18;101466.38;4968246;28;19973;-75
2023/06/26 08:00:41;;;;;;;;;;;;;;;22.73;80.42;101468.84;4987096;28;19976;-78
2023/06/26 08:03:08;;;;;;;;;;;;;;;22.79;81.63;101473.34;4981420;28;19921;-80
2023/06/26 08:05:46;;;;;;;;;;;;;;;22.89;83.32;101485.25;4975247;28;19921;-81
2023/06/26 08:08:13;;;;;;;;;;;;;;;22.94;80.36;101492.63;4984729;28;20608;-78
2023/06/26 08:10:39;;;;;;;;;;;;;;;22.90;79.99;101491.41;4989267;28;19925;-74
2023/06/26 08:13:06;;;;;;;;;;;;;;;22.88;79.68;101482.78;4986103;28;19980;-78
2023/06/26 08:15:33;;;;;;;;;;;;;;;22.76;77.83;101498.66;4985899;28;20381;-80
2023/06/26 08:17:59;;;;;;;;;;;;;;;22.80;79.96;101494.53;4989892;28;19916;-76
2023/06/26 08:20:26;;;;;;;;;;;;;;;22.73;80.92;101488.38;4988946;28;19929;-76
2023/06/26 08:22:54;;;;;;;;;;;;;;;22.66;80.65;101495.63;4993499;28;19926;-79
2023/06/26 08:25:20;;;;;;;;;;;;;;;22.75;80.87;101477.47;4978263;28;20342;-74
2023/06/26 08:27:47;;;;;;;;;;;;;;;22.71;80.44;101485.91;4981794;28;20380;-80
2023/06/26 08:30:14;;;;;;;;;;;;;;;22.82;80.82;101487.13;4974827;28;19929;-78
2023/06/26 08:32:40;;;;;;;;;;;;;;;23.08;81.58;101488.06;4971424;28;19926;-77
2023/06/26 08:35:07;;;;;;;;;;;;;;;23.37;78.47;101493.91;4995131;28;19968;-78
2023/06/26 08:37:33;;;;;;;;;;;;;;;23.13;79.12;101501.66;4987466;28;19960;-79
2023/06/26 08:40:00;;;;;;;;;;;;;;;23.19;80.68;101503.47;4988248;28;19929;-77
2023/06/26 08:42:26;;;;;;;;;;;;;;;23.24;78.68;101508.97;4967588;28;19993;-77
2023/06/26 08:44:53;;;;;;;;;;;;;;;23.41;77.86;101505.81;4992430;28;19996;-73
2023/06/26 08:47:27;;;;;;;;;;;;;;;23.79;76.47;101503.09;4974908;28;19929;-73
2023/06/26 08:50:00;;;;;;;;;;;;;;;24.01;70.08;101522.31;4995018;28;19905;-79
2023/06/26 08:52:32;;;;;;;;;;;;;;;24.37;68.63;101518.06;4997068;28;19932;-73
2023/06/26 08:54:59;;;;;;;;;;;;;;;24.35;66.38;101519.34;5008151;28;19909;-76
2023/06/26 08:57:26;;;;;;;;;;;;;;;24.53;69.41;101522.06;5011196;28;19926;-74
2023/06/26 08:59:53;;;;;;;;;;;;;;;24.57;68.51;101522.44;4997771;28;20274;-77
2023/06/26 09:02:22;;;;;;;;;;;;;;;25.05;70.55;101527.03;4988934;28;19930;-77
2023/06/26 09:04:49;;;;;;;;;;;;;;;25.34;66.10;101527.31;4997546;28;20298;-78
2023/06/26 09:07:16;;;;;;;;;;;;;;;25.67;62.09;101531.38;4985672;28;19926;-76
2023/06/26 09:09:43;;;;;;;;;;;;;;;25.79;62.03;101534.91;4978340;28;20012;-79
2023/06/26 09:12:10;;;;;;;;;;;;;;;25.93;60.94;101530.97;4990050;28;19914;-76
2023/06/26 09:14:37;;;;;;;;;;;;;;;26.21;58.66;101543.75;4999081;28;19957;-78
2023/06/26 09:17:03;;;;;;;;;;;;;;;25.73;54.30;101538.53;4987275;28;19922;-77
2023/06/26 09:19:31;;;;;;;;;;;;;;;25.83;55.11;101544.16;4995660;28;19922;-74
2023/06/26 09:22:00;;;;;;;;;;;;;;;25.99;55.03;101545.38;4987713;28;19925;-77
2023/06/26 09:24:26;;;;;;;;;;;;;;;26.17;56.33;101556.03;4984141;28;19985;-80
2023/06/26 09:26:53;;;;;;;;;;;;;;;26.13;50.15;101549.50;5001628;28;19926;-81
2023/06/26 09:29:19;;;;;;;;;;;;;;;25.88;52.03;101554.22;4996643;28;20016;-79
2023/06/26 09:31:46;;;;;;;;;;;;;;;25.79;52.66;101559.91;4995710;28;19957;-77
2023/06/26 09:34:12;;;;;;;;;;;;;;;26.33;54.73;101569.84;4988593;28;19951;-80
2023/06/26 09:36:41;;;;;;;;;;;;;;;26.17;54.04;101563.28;4973689;28;19922;-75
2023/06/26 09:39:14;;;;;;;;;;;;;;;25.88;55.14;101567.66;4974284;28;19956;-79
2023/06/26 09:41:41;;;;;;;;;;;;;;;26.07;55.05;101569.25;4993460;28;19984;-77
2023/06/26 09:44:10;;;;;;;;;;;;;;;26.31;53.80;101566.56;4999314;28;19948;-80
2023/06/26 09:46:37;;;;;;;;;;;;;;;26.10;51.54;101558.00;4972971;28;19951;-78
2023/06/26 09:49:05;;;;;;;;;;;;;;;26.01;52.68;101579.03;4999308;28;19922;-80
2023/06/26 09:51:32;;;;;;;;;;;;;;;26.12;53.22;101587.34;4966650;28;19928;-78
2023/06/26 09:54:03;;;;;;;;;;;;;;;26.24;53.94;101572.03;4982104;28;19926;-79
2023/06/26 09:56:30;;;;;;;;;;;;;;;26.15;51.19;101573.44;5004077;28;19925;-79
2023/06/26 09:58:57;;;;;;;;;;;;;;;26.03;50.73;101579.63;4997728;28;19932;-76
2023/06/26 10:01:27;;;;;;;;;;;;;;;25.87;50.92;101584.81;4997951;28;19972;-76
2023/06/26 10:03:54;;;;;;;;;;;;;;;25.56;51.03;101581.31;4974702;28;20353;-78
2023/06/26 10:06:24;;;;;;;;;;;;;;;25.96;51.89;101595.03;4992830;28;20069;-80
2023/06/26 10:08:50;;;;;;;;;;;;;;;26.33;52.32;101583.28;4974149;28;19916;-76
2023/06/26 10:11:20;;;;;;;;;;;;;;;25.83;50.96;101590.66;4981919;28;19925;-80
2023/06/26 10:13:49;;;;;;;;;;;;;;;26.11;51.35;101605.38;4989184;28;20017;-78
2023/06/26 10:16:21;;;;;;;;;;;;;;;26.00;50.41;101592.72;4995656;28;19930;-75
2023/06/26 10:18:49;;;;;;;;;;;;;;;26.21;50.16;101594.84;4987332;28;20307;-79
2023/06/26 10:21:16;;;;;;;;;;;;;;;26.18;51.76;101611.44;4983994;28;19968;-77
2023/06/26 10:23:44;;;;;;;;;;;;;;;26.51;50.96;101607.38;4988512;28;19926;-79
2023/06/26 10:26:11;;;;;;;;;;;;;;;26.63;49.28;101608.22;4991353;28;21317;-77
2023/06/26 10:28:38;;;;;;;;;;;;;;;26.70;49.95;101604.56;4990828;28;19931;-81
2023/06/26 10:31:07;;;;;;;;;;;;;;;26.74;47.57;101603.09;4979246;28;19980;-81
2023/06/26 10:33:34;;;;;;;;;;;;;;;26.93;47.53;101612.66;4981254;28;19930;-80
2023/06/26 10:36:14;;;;;;;;;;;;;;;26.77;46.87;101610.66;4986203;28;19992;-78
2023/06/26 10:38:50;;;;;;;;;;;;;;;26.91;47.00;101612.03;4982367;28;20412;-79
2023/06/26 10:41:19;;;;;;;;;;;;;;;26.63;48.29;101627.03;4974465;28;19926;-76
2023/06/26 10:43:48;;;;;;;;;;;;;;;26.49;48.70;101625.63;4988609;28;20862;-78
2023/06/26 10:46:15;;;;;;;;;;;;;;;26.71;47.41;101622.38;4990934;28;19989;-78
2023/06/26 10:48:58;;;;;;;;;;;;;;;27.22;48.22;101616.19;4981371;28;20374;-76
2023/06/26 10:51:27;;;;;;;;;;;;;;;27.20;46.53;101607.53;4988159;28;20034;-78
2023/06/26 10:53:57;;;;;;;;;;;;;;;26.96;45.76;101603.28;4990697;28;19921;-79
2023/06/26 10:56:40;;;;;;;;;;;;;;;27.00;46.10;101613.31;4988729;28;19929;-79
2023/06/26 10:59:18;;;;;;;;;;;;;;;27.22;45.60;101623.47;4988005;28;19929;-78
2023/06/26 11:01:45;;;;;;;;;;;;;;;27.25;43.31;101635.66;4982279;28;19929;-78
2023/06/26 11:04:14;;;;;;;;;;;;;;;26.69;44.01;101625.28;4968879;28;19933;-72
2023/06/26 11:06:41;;;;;;;;;;;;;;;26.42;44.03;101632.97;4984146;28;20012;-72
2023/06/26 11:09:10;;;;;;;;;;;;;;;26.32;45.59;101638.94;4988080;28;19922;-73
2023/06/26 11:11:53;;;;;;;;;;;;;;;26.10;44.05;101651.28;4983355;28;19922;-73
2023/06/26 11:14:20;;;;;;;;;;;;;;;26.09;43.35;101638.88;4975044;28;19981;-73
2023/06/26 11:16:48;;;;;;;;;;;;;;;26.42;46.46;101633.81;4948954;28;19930;-72
2023/06/26 11:20:07;;;;;;;;;;;;;;;26.51;45.99;101631.59;4985304;27;19920;-79
2023/06/26 11:22:38;;;;;;;;;;;;;;;26.52;47.03;101656.59;5103698;28;19924;-79
2023/06/26 11:25:05;;;;;;;;;;;;;;;26.43;46.58;101654.25;5093768;28;19930;-80
2023/06/26 11:27:37;;;;;;;;;;;;;;;26.35;45.17;101656.50;5092353;28;19941;-79
2023/06/26 11:30:05;;;;;;;;;;;;;;;26.35;45.92;101651.91;5051679;28;19924;-75
2023/06/26 11:32:32;;;;;;;;;;;;;;;26.57;46.21;101648.66;5075611;28;20011;-79
2023/06/26 11:34:59;;;;;;;;;;;;;;;26.80;46.00;101654.09;5076612;28;20415;-79
2023/06/26 11:37:26;;;;;;;;;;;;;;;26.92;45.69;101662.16;5077545;28;19925;-79
2023/06/26 11:39:53;;;;;;;;;;;;;;;26.71;44.71;101679.69;5081431;28;19978;-79
2023/06/26 11:42:19;;;;;;;;;;;;;;;26.66;46.02;101676.06;5071766;28;19933;-79
2023/06/26 11:44:46;;;;;;;;;;;;;;;26.56;44.12;101677.44;5078302;28;19924;-74
2023/06/26 11:47:17;;;;;;;;;;;;;;;26.58;44.23;101687.97;5074664;28;19925;-78
2023/06/26 11:49:44;;;;;;;;;;;;;;;26.77;44.68;101686.84;5077541;28;20295;-79
2023/06/26 11:52:12;;;;;;;;;;;;;;;26.62;45.38;101690.00;5069681;28;19929;-80
2023/06/26 11:54:38;;;;;;;;;;;;;;;25.87;45.65;101695.81;5064267;28;19935;-80
2023/06/26 11:57:05;;;;;;;;;;;;;;;25.90;45.57;101703.44;5063280;28;19982;-81
2023/06/26 11:59:35;;;;;;;;;;;;;;;26.28;45.40;101701.47;5057759;28;19959;-81
2023/06/26 12:02:04;;;;;;;;;;;;;;;26.77;46.21;101697.59;5065814;28;20389;-76
2023/06/26 12:04:31;;;;;;;;;;;;;;;26.80;45.46;101705.22;5027785;28;19933;-79
2023/06/26 12:06:58;;;;;;;;;;;;;;;27.08;45.63;101708.25;5067187;28;19933;-79
2023/06/26 12:09:25;;;;;;;;;;;;;;;26.79;45.63;101708.13;5042289;28;19932;-81
2023/06/26 12:11:52;;;;;;;;;;;;;;;27.15;46.53;101708.97;5062172;28;20305;-80
2023/06/26 12:14:19;;;;;;;;;;;;;;;26.76;45.82;101716.69;5063473;28;19924;-79
2023/06/26 12:16:46;;;;;;;;;;;;;;;26.61;43.51;101723.31;5058208;28;19936;-75
2023/06/26 12:19:14;;;;;;;;;;;;;;;26.42;43.19;101710.97;5064308;28;19929;-83
2023/06/26 12:21:40;;;;;;;;;;;;;;;26.23;43.39;101711.06;5041044;28;19929;-78
2023/06/26 12:24:07;;;;;;;;;;;;;;;26.79;45.16;101718.91;5068642;28;19933;-79
2023/06/26 12:26:35;;;;;;;;;;;;;;;27.02;42.30;101712.72;5059068;28;19972;-81
2023/06/26 12:29:20;;;;;;;;;;;;;;;26.94;42.35;101719.25;5064080;28;19924;-81
2023/06/26 12:31:51;;;;;;;;;;;;;;;27.14;42.87;101720.78;5046213;28;20364;-78
2023/06/26 12:34:19;;;;;;;;;;;;;;;26.78;42.62;101717.28;5051317;28;19929;-81